Time;durP1;ratioP1;P1;durP2;ratioP2;P2;SDS_P1;SDS_P2;PMS_P1;PMS_P2;Temp;Humidity;BMP_temperature;BMP_pressure;BME280_temperature;BME280_humidity;BME280_pressure;Samples;Min_cycle;Max_cycle;Signal;HPM_P1;HPM_P2
2023/04/11 00:02:19;;;;;;;8.63;1.90;;;;;;;;;;5051954;28;20132;-63
2023/04/11 00:04:46;;;;;;;13.00;2.30;;;;;;;;;;5057918;28;20044;-63
2023/04/11 00:07:12;;;;;;;8.83;2.97;;;;;;;;;;5069620;28;20051;-63
2023/04/11 00:09:38;;;;;;;11.80;2.33;;;;;;;;;;5070054;28;20067;-63
2023/04/11 00:12:04;;;;;;;14.23;2.47;;;;;;;;;;5070889;28;20490;-63
2023/04/11 00:14:32;;;;;;;6.70;2.53;;;;;;;;;;5065613;28;20059;-63
2023/04/11 00:16:59;;;;;;;11.33;2.90;;;;;;;;;;5068407;28;20048;-63
2023/04/11 00:19:27;;;;;;;10.63;3.17;;;;;;;;;;5071282;28;20080;-63
2023/04/11 00:21:57;;;;;;;8.10;2.37;;;;;;;;;;5071608;28;20471;-63
2023/04/11 00:24:24;;;;;;;7.63;2.13;;;;;;;;;;5070947;28;20053;-63
2023/04/11 00:26:50;;;;;;;10.67;3.20;;;;;;;;;;5068253;28;20075;-63
2023/04/11 00:29:16;;;;;;;16.47;2.77;;;;;;;;;;5050289;28;20072;-63
2023/04/11 00:31:43;;;;;;;11.27;2.93;;;;;;;;;;5050258;28;20399;-63
2023/04/11 00:34:09;;;;;;;13.70;3.20;;;;;;;;;;5059482;28;20058;-63
2023/04/11 00:36:35;;;;;;;9.77;3.20;;;;;;;;;;5071366;28;20055;-63
2023/04/11 00:39:01;;;;;;;15.27;3.30;;;;;;;;;;5071113;28;20482;-64
2023/04/11 00:41:27;;;;;;;14.63;3.27;;;;;;;;;;5071082;28;20044;-64
2023/04/11 00:43:53;;;;;;;9.53;2.87;;;;;;;;;;5054553;28;20045;-64
2023/04/11 00:46:20;;;;;;;14.40;3.40;;;;;;;;;;5050824;28;20471;-64
2023/04/11 00:48:47;;;;;;;17.50;4.70;;;;;;;;;;5050363;28;20103;-64
2023/04/11 00:51:14;;;;;;;17.03;3.47;;;;;;;;;;5050413;28;20136;-64
2023/04/11 00:53:40;;;;;;;14.10;3.60;;;;;;;;;;5051330;28;20087;-63
2023/04/11 00:56:06;;;;;;;15.10;4.27;;;;;;;;;;5063284;28;20068;-64
2023/04/11 00:58:33;;;;;;;17.20;4.70;;;;;;;;;;5067198;28;20589;-64
2023/04/11 01:00:59;;;;;;;17.13;5.00;;;;;;;;;;5050867;28;20056;-63
2023/04/11 01:03:25;;;;;;;16.47;5.03;;;;;;;;;;5050645;28;20037;-64
2023/04/11 01:05:52;;;;;;;15.43;5.73;;;;;;;;;;5050789;28;20492;-63
2023/04/11 01:08:19;;;;;;;17.13;5.17;;;;;;;;;;5059487;28;20048;-64
2023/04/11 01:10:45;;;;;;;15.23;6.60;;;;;;;;;;5068831;28;20045;-63
2023/04/11 01:13:11;;;;;;;18.33;5.60;;;;;;;;;;5058025;28;20147;-63
2023/04/11 01:15:38;;;;;;;19.97;6.30;;;;;;;;;;5050776;28;20083;-63
2023/04/11 01:18:04;;;;;;;16.00;6.20;;;;;;;;;;5050578;28;20098;-63
2023/04/11 01:20:32;;;;;;;14.67;4.57;;;;;;;;;;5050584;28;20048;-63
2023/04/11 01:22:58;;;;;;;15.33;5.13;;;;;;;;;;5049975;28;20052;-64
2023/04/11 01:25:25;;;;;;;26.00;6.00;;;;;;;;;;5058604;28;20128;-63
2023/04/11 01:27:51;;;;;;;26.30;6.67;;;;;;;;;;5070056;28;20052;-63
2023/04/11 01:30:17;;;;;;;21.40;6.60;;;;;;;;;;5070037;28;20055;-64
2023/04/11 01:32:43;;;;;;;22.63;6.83;;;;;;;;;;5069589;28;20048;-65
2023/04/11 01:35:13;;;;;;;19.40;6.07;;;;;;;;;;5070314;28;20044;-64
2023/04/11 01:37:39;;;;;;;22.80;7.50;;;;;;;;;;5070409;28;20048;-65
2023/04/11 01:40:06;;;;;;;23.07;6.57;;;;;;;;;;5070089;28;20127;-64
2023/04/11 01:42:32;;;;;;;25.60;7.17;;;;;;;;;;5056797;28;20131;-64
2023/04/11 01:44:59;;;;;;;16.13;5.80;;;;;;;;;;5048359;28;20064;-64
2023/04/11 01:47:25;;;;;;;26.50;6.83;;;;;;;;;;5048538;28;20049;-63
2023/04/11 01:49:52;;;;;;;19.43;6.63;;;;;;;;;;5050322;28;20549;-63
2023/04/11 01:52:18;;;;;;;17.43;6.20;;;;;;;;;;5050147;28;20427;-63
2023/04/11 01:54:44;;;;;;;17.10;6.30;;;;;;;;;;5048219;28;20037;-63
2023/04/11 01:57:10;;;;;;;22.40;6.50;;;;;;;;;;5050344;28;20047;-63
2023/04/11 01:59:37;;;;;;;29.07;7.30;;;;;;;;;;5062213;28;20438;-64
2023/04/11 02:02:03;;;;;;;22.70;6.97;;;;;;;;;;5069787;28;20074;-63
2023/04/11 02:04:29;;;;;;;15.50;5.57;;;;;;;;;;5069722;28;20044;-63
2023/04/11 02:06:55;;;;;;;20.33;5.97;;;;;;;;;;5057054;28;20049;-63
2023/04/11 02:09:21;;;;;;;25.30;6.40;;;;;;;;;;5050086;28;20128;-64
2023/04/11 02:11:47;;;;;;;25.50;7.30;;;;;;;;;;5031919;28;20053;-64
2023/04/11 02:14:13;;;;;;;17.57;5.37;;;;;;;;;;5049860;28;20056;-64
2023/04/11 02:16:49;;;;;;;18.33;5.27;;;;;;;;;;5049187;28;20056;-63
2023/04/11 02:19:15;;;;;;;17.17;5.63;;;;;;;;;;5049788;28;20056;-63
2023/04/11 02:21:41;;;;;;;20.90;6.63;;;;;;;;;;5050197;28;20041;-62
2023/04/11 02:24:07;;;;;;;24.63;6.17;;;;;;;;;;5048981;28;20048;-62
2023/04/11 02:26:33;;;;;;;19.53;4.80;;;;;;;;;;5049549;28;20515;-63
2023/04/11 02:28:59;;;;;;;31.03;5.23;;;;;;;;;;5049271;28;20503;-62
2023/04/11 02:31:25;;;;;;;27.67;6.00;;;;;;;;;;5049397;28;20060;-63
2023/04/11 02:33:51;;;;;;;28.83;6.70;;;;;;;;;;5049759;28;20045;-62
2023/04/11 02:36:18;;;;;;;24.80;5.17;;;;;;;;;;5051469;28;20550;-63
2023/04/11 02:38:44;;;;;;;24.87;4.63;;;;;;;;;;5062966;28;20510;-63
2023/04/11 02:41:10;;;;;;;21.83;5.03;;;;;;;;;;5073650;28;20041;-63
2023/04/11 02:43:36;;;;;;;21.53;4.83;;;;;;;;;;5072888;28;20055;-62
2023/04/11 02:46:02;;;;;;;25.47;5.60;;;;;;;;;;5072349;28;20068;-62
2023/04/11 02:48:28;;;;;;;22.53;4.77;;;;;;;;;;5068352;28;20089;-62
2023/04/11 02:50:54;;;;;;;17.83;5.60;;;;;;;;;;5067166;28;20094;-62
2023/04/11 02:53:20;;;;;;;15.27;4.93;;;;;;;;;;5054885;28;20396;-62
2023/04/11 02:55:46;;;;;;;24.67;5.37;;;;;;;;;;5073017;28;20091;-63
2023/04/11 02:58:16;;;;;;;34.40;6.50;;;;;;;;;;5071799;28;20524;-62
2023/04/11 03:00:42;;;;;;;21.17;4.60;;;;;;;;;;5072081;28;20049;-62
2023/04/11 03:03:10;;;;;;;23.27;5.40;;;;;;;;;;5072993;28;20055;-63
2023/04/11 03:05:36;;;;;;;22.43;5.00;;;;;;;;;;5073020;28;20178;-62
2023/04/11 03:08:03;;;;;;;23.50;5.40;;;;;;;;;;5072002;28;20528;-62
2023/04/11 03:10:29;;;;;;;25.03;5.67;;;;;;;;;;5072938;28;20044;-62
2023/04/11 03:12:55;;;;;;;29.67;5.57;;;;;;;;;;5072456;28;20178;-62
2023/04/11 03:15:21;;;;;;;22.33;4.57;;;;;;;;;;5058178;28;20043;-62
2023/04/11 03:17:47;;;;;;;24.13;5.50;;;;;;;;;;5052658;28;20045;-62
2023/04/11 03:20:18;;;;;;;23.10;3.87;;;;;;;;;;5052926;28;20052;-62
2023/04/11 03:22:45;;;;;;;27.10;5.83;;;;;;;;;;5066516;28;20052;-63
2023/04/11 03:25:11;;;;;;;27.13;5.73;;;;;;;;;;5055757;28;20064;-63
2023/04/11 03:27:37;;;;;;;28.03;4.57;;;;;;;;;;5052561;28;20153;-63
2023/04/11 03:30:03;;;;;;;26.83;4.83;;;;;;;;;;5052649;28;20053;-64
2023/04/11 03:32:30;;;;;;;23.23;4.50;;;;;;;;;;5052359;28;20049;-63
2023/04/11 03:34:57;;;;;;;29.00;4.97;;;;;;;;;;5052432;28;20128;-63
2023/04/11 03:37:23;;;;;;;14.37;3.17;;;;;;;;;;5052326;28;20128;-63
2023/04/11 03:39:49;;;;;;;16.50;3.40;;;;;;;;;;5052564;28;20052;-63
2023/04/11 03:42:15;;;;;;;19.43;2.80;;;;;;;;;;5051948;28;20491;-63
2023/04/11 03:44:41;;;;;;;23.87;3.80;;;;;;;;;;5068517;28;20055;-62
2023/04/11 03:47:07;;;;;;;24.30;3.30;;;;;;;;;;5071513;28;20053;-63
2023/04/11 03:49:33;;;;;;;22.77;4.00;;;;;;;;;;5072434;28;20131;-62
2023/04/11 03:51:59;;;;;;;16.57;3.40;;;;;;;;;;5071073;28;20449;-62
2023/04/11 03:54:25;;;;;;;14.77;4.00;;;;;;;;;;5071492;28;20075;-63
2023/04/11 03:56:51;;;;;;;15.00;3.60;;;;;;;;;;5071853;28;20040;-62
2023/04/11 03:59:17;;;;;;;18.23;3.50;;;;;;;;;;5054611;28;20052;-63
2023/04/11 04:01:43;;;;;;;20.67;3.97;;;;;;;;;;5052226;28;20049;-63
2023/04/11 04:04:09;;;;;;;23.60;4.60;;;;;;;;;;5051772;28;20045;-62
2023/04/11 04:06:35;;;;;;;22.33;3.17;;;;;;;;;;5054586;28;20049;-63
2023/04/11 04:09:03;;;;;;;21.10;4.23;;;;;;;;;;5067731;28;20052;-62
2023/04/11 04:11:29;;;;;;;18.40;3.60;;;;;;;;;;5071286;28;20053;-62
2023/04/11 04:13:55;;;;;;;12.03;3.13;;;;;;;;;;5070333;28;20510;-63
2023/04/11 04:16:21;;;;;;;18.23;3.90;;;;;;;;;;5053007;28;20040;-62
2023/04/11 04:18:47;;;;;;;18.63;3.93;;;;;;;;;;5051899;28;20053;-62
2023/04/11 04:21:13;;;;;;;12.13;2.93;;;;;;;;;;5051416;28;20052;-63
2023/04/11 04:23:46;;;;;;;15.47;3.17;;;;;;;;;;5054172;28;20044;-62
2023/04/11 04:26:14;;;;;;;15.10;3.83;;;;;;;;;;5071287;28;20121;-62
2023/04/11 04:28:44;;;;;;;15.00;5.00;;;;;;;;;;5070729;28;20136;-63
2023/04/11 04:31:11;;;;;;;13.33;3.13;;;;;;;;;;5069563;28;20047;-63
2023/04/11 04:33:41;;;;;;;18.43;3.80;;;;;;;;;;5051653;28;20051;-62
2023/04/11 04:36:08;;;;;;;18.03;3.87;;;;;;;;;;5051015;28;20053;-63
2023/04/11 04:38:37;;;;;;;19.90;4.10;;;;;;;;;;5050653;28;20044;-62
2023/04/11 04:41:04;;;;;;;18.13;3.50;;;;;;;;;;5050824;28;20064;-63
2023/04/11 04:43:32;;;;;;;12.70;3.70;;;;;;;;;;5050728;28;20439;-62
2023/04/11 04:45:58;;;;;;;16.37;3.80;;;;;;;;;;5050867;28;20052;-62
2023/04/11 04:48:24;;;;;;;19.87;3.87;;;;;;;;;;5053646;28;20049;-62
2023/04/11 04:50:50;;;;;;;14.13;3.83;;;;;;;;;;5061094;28;20059;-62
2023/04/11 04:53:16;;;;;;;15.33;3.47;;;;;;;;;;5051108;28;20037;-62
2023/04/11 04:55:42;;;;;;;17.33;3.47;;;;;;;;;;5051024;28;20044;-62
2023/04/11 04:58:08;;;;;;;14.30;3.30;;;;;;;;;;5049881;28;20049;-62
2023/04/11 05:00:35;;;;;;;13.37;3.03;;;;;;;;;;5050265;28;20041;-62
2023/04/11 05:03:04;;;;;;;13.20;2.80;;;;;;;;;;5050877;28;20075;-62
2023/04/11 05:05:31;;;;;;;19.57;3.60;;;;;;;;;;5065240;28;20446;-62
2023/04/11 05:07:57;;;;;;;16.17;3.37;;;;;;;;;;5061205;28;20522;-63
2023/04/11 05:10:23;;;;;;;22.40;3.13;;;;;;;;;;5050522;28;20408;-62
2023/04/11 05:12:49;;;;;;;11.47;3.10;;;;;;;;;;5050097;28;20048;-63
2023/04/11 05:15:15;;;;;;;18.83;3.67;;;;;;;;;;5050662;28;20047;-62
2023/04/11 05:17:41;;;;;;;11.77;2.60;;;;;;;;;;5058837;28;20044;-62
2023/04/11 05:20:07;;;;;;;10.70;2.60;;;;;;;;;;5062168;28;20048;-62
2023/04/11 05:22:34;;;;;;;11.90;3.03;;;;;;;;;;5055851;28;20049;-63
2023/04/11 05:25:01;;;;;;;11.20;2.80;;;;;;;;;;5057349;28;20147;-62
2023/04/11 05:27:27;;;;;;;10.70;2.63;;;;;;;;;;5064121;28;20055;-62
2023/04/11 05:29:53;;;;;;;8.43;2.93;;;;;;;;;;5055890;28;20453;-62
2023/04/11 05:32:19;;;;;;;10.53;3.33;;;;;;;;;;5067882;28;20054;-62
2023/04/11 05:34:55;;;;;;;15.00;3.10;;;;;;;;;;5069833;28;20040;-63
2023/04/11 05:37:21;;;;;;;10.57;2.87;;;;;;;;;;5064184;28;20083;-62
2023/04/11 05:39:47;;;;;;;10.50;2.10;;;;;;;;;;5055182;28;20049;-63
2023/04/11 05:42:16;;;;;;;14.47;2.80;;;;;;;;;;5049461;28;20159;-62
2023/04/11 05:44:42;;;;;;;16.53;3.23;;;;;;;;;;5049504;28;20087;-63
2023/04/11 05:47:10;;;;;;;13.20;2.57;;;;;;;;;;5050333;28;20043;-64
2023/04/11 05:49:36;;;;;;;9.10;2.27;;;;;;;;;;5049826;28;20506;-64
2023/04/11 05:52:02;;;;;;;12.20;2.50;;;;;;;;;;5061933;28;20062;-64
2023/04/11 05:54:36;;;;;;;13.27;2.80;;;;;;;;;;5069251;28;20044;-63
2023/04/11 05:57:02;;;;;;;17.30;3.33;;;;;;;;;;5066922;28;20056;-63
2023/04/11 05:59:31;;;;;;;15.43;2.53;;;;;;;;;;5049999;28;20041;-64
2023/04/11 06:02:01;;;;;;;9.70;1.90;;;;;;;;;;5049703;28;20067;-64
2023/04/11 06:04:27;;;;;;;11.73;2.40;;;;;;;;;;5049420;28;20419;-63
2023/04/11 06:06:53;;;;;;;15.63;2.23;;;;;;;;;;5048085;28;20098;-63
2023/04/11 06:09:19;;;;;;;10.20;2.63;;;;;;;;;;5048753;28;20048;-63
2023/04/11 06:11:45;;;;;;;8.93;2.33;;;;;;;;;;5051452;28;20056;-63
2023/04/11 06:14:11;;;;;;;12.13;2.50;;;;;;;;;;5057701;28;20041;-64
2023/04/11 06:16:37;;;;;;;8.37;2.13;;;;;;;;;;5051914;28;20052;-63
2023/04/11 06:19:04;;;;;;;10.07;2.37;;;;;;;;;;5050511;28;20041;-63
2023/04/11 06:21:31;;;;;;;13.37;3.23;;;;;;;;;;5050304;28;20080;-63
2023/04/11 06:24:02;;;;;;;8.83;2.73;;;;;;;;;;5051426;28;20048;-64
2023/04/11 06:26:28;;;;;;;14.33;3.03;;;;;;;;;;5058892;28;20059;-63
2023/04/11 06:28:54;;;;;;;21.13;2.97;;;;;;;;;;5063305;28;20507;-63
2023/04/11 06:31:20;;;;;;;8.93;1.90;;;;;;;;;;5053798;28;20510;-62
2023/04/11 06:33:46;;;;;;;11.77;3.17;;;;;;;;;;5052848;28;20037;-63
2023/04/11 06:36:12;;;;;;;13.53;2.90;;;;;;;;;;5053718;28;20041;-63
2023/04/11 06:38:39;;;;;;;14.73;2.60;;;;;;;;;;5053375;28;20049;-63
2023/04/11 06:41:05;;;;;;;15.87;3.20;;;;;;;;;;5053456;28;20048;-63
2023/04/11 06:43:31;;;;;;;13.57;1.80;;;;;;;;;;5053254;28;20057;-63
2023/04/11 06:45:57;;;;;;;13.97;2.30;;;;;;;;;;5053860;28;20045;-64
2023/04/11 06:48:23;;;;;;;18.67;2.40;;;;;;;;;;5063324;28;20076;-62
2023/04/11 06:50:49;;;;;;;10.50;2.10;;;;;;;;;;5056603;28;20049;-63
2023/04/11 06:53:15;;;;;;;13.37;2.63;;;;;;;;;;5053205;28;20044;-65
2023/04/11 06:55:41;;;;;;;12.43;2.93;;;;;;;;;;5054297;28;20040;-64
2023/04/11 06:58:07;;;;;;;10.93;1.93;;;;;;;;;;5052812;28;20128;-62
2023/04/11 07:00:34;;;;;;;12.13;2.90;;;;;;;;;;5052601;28;20488;-62
2023/04/11 07:03:00;;;;;;;15.10;2.20;;;;;;;;;;5052982;28;20075;-62
2023/04/11 07:05:26;;;;;;;12.30;2.47;;;;;;;;;;5065223;28;20041;-62
2023/04/11 07:07:53;;;;;;;13.73;2.27;;;;;;;;;;5068399;28;20099;-61
2023/04/11 07:10:19;;;;;;;15.63;2.67;;;;;;;;;;5070678;28;20080;-62
2023/04/11 07:12:45;;;;;;;13.67;2.40;;;;;;;;;;5051914;28;20036;-62
2023/04/11 07:15:11;;;;;;;11.77;1.77;;;;;;;;;;5059863;28;20148;-62
2023/04/11 07:17:37;;;;;;;12.47;2.33;;;;;;;;;;5062096;28;20131;-62
2023/04/11 07:20:07;;;;;;;11.67;2.60;;;;;;;;;;5061974;28;20048;-61
2023/04/11 07:22:33;;;;;;;7.63;1.87;;;;;;;;;;5063894;28;20048;-61
2023/04/11 07:24:59;;;;;;;15.03;2.00;;;;;;;;;;5057101;28;20517;-62
2023/04/11 07:27:25;;;;;;;11.00;1.87;;;;;;;;;;5059808;28;20056;-62
2023/04/11 07:29:51;;;;;;;12.73;2.10;;;;;;;;;;5060552;28;20048;-61
2023/04/11 07:32:17;;;;;;;8.03;1.67;;;;;;;;;;5061003;28;20076;-62
2023/04/11 07:34:43;;;;;;;10.77;2.27;;;;;;;;;;5060592;28;20041;-61
2023/04/11 07:37:09;;;;;;;11.97;2.03;;;;;;;;;;5056599;28;20048;-61
2023/04/11 07:39:36;;;;;;;10.60;1.83;;;;;;;;;;5060388;28;20081;-62
2023/04/11 07:42:02;;;;;;;8.90;2.17;;;;;;;;;;5061878;28;20078;-62
2023/04/11 07:44:28;;;;;;;9.97;1.80;;;;;;;;;;5071294;28;20095;-62
2023/04/11 07:46:54;;;;;;;13.27;2.03;;;;;;;;;;5071235;28;20131;-62
2023/04/11 07:49:20;;;;;;;11.47;2.73;;;;;;;;;;5071164;28;20098;-62
2023/04/11 07:51:46;;;;;;;8.53;2.00;;;;;;;;;;5071103;28;20048;-62
2023/04/11 07:54:12;;;;;;;9.83;2.10;;;;;;;;;;5071562;28;20071;-62
2023/04/11 07:56:39;;;;;;;10.03;2.20;;;;;;;;;;5064210;28;20048;-62
2023/04/11 07:59:05;;;;;;;16.73;3.60;;;;;;;;;;5068095;28;20543;-62
2023/04/11 08:01:31;;;;;;;9.37;1.80;;;;;;;;;;5070909;28;20045;-62
2023/04/11 08:03:57;;;;;;;8.77;1.73;;;;;;;;;;5071383;28;20044;-62
2023/04/11 08:06:23;;;;;;;4.67;1.60;;;;;;;;;;5069961;28;20131;-62
2023/04/11 08:08:50;;;;;;;9.27;1.83;;;;;;;;;;5070655;28;20600;-61
2023/04/11 08:11:16;;;;;;;9.63;2.13;;;;;;;;;;5070768;28;20044;-61
2023/04/11 08:13:42;;;;;;;11.47;2.13;;;;;;;;;;5055027;28;20491;-61
2023/04/11 08:16:10;;;;;;;8.43;2.13;;;;;;;;;;5061734;28;20537;-62
2023/04/11 08:18:40;;;;;;;8.70;1.60;;;;;;;;;;5070662;28;20048;-61
2023/04/11 08:21:06;;;;;;;11.53;2.50;;;;;;;;;;5069648;28;20460;-61
2023/04/11 08:23:32;;;;;;;16.03;3.23;;;;;;;;;;5070260;28;20645;-62
2023/04/11 08:25:59;;;;;;;9.27;1.87;;;;;;;;;;5071075;28;20131;-61
2023/04/11 08:28:25;;;;;;;12.30;2.07;;;;;;;;;;5069146;28;20068;-61
2023/04/11 08:30:54;;;;;;;10.90;2.10;;;;;;;;;;5068319;28;20057;-62
2023/04/11 08:33:23;;;;;;;33.87;3.37;;;;;;;;;;5068452;28;20053;-65
2023/04/11 08:35:49;;;;;;;17.47;2.30;;;;;;;;;;5069856;28;20048;-63
2023/04/11 08:38:15;;;;;;;11.70;2.33;;;;;;;;;;5068412;28;20054;-64
2023/04/11 08:40:41;;;;;;;12.03;1.83;;;;;;;;;;5060080;28;20044;-63
2023/04/11 08:43:10;;;;;;;17.43;2.30;;;;;;;;;;5053604;28;20071;-64
2023/04/11 08:45:37;;;;;;;14.90;3.70;;;;;;;;;;5060070;28;20526;-63
2023/04/11 08:48:07;;;;;;;17.63;4.90;;;;;;;;;;5056612;28;20046;-63
2023/04/11 08:50:33;;;;;;;12.10;3.10;;;;;;;;;;5067861;28;20048;-62
2023/04/11 08:53:03;;;;;;;15.20;3.27;;;;;;;;;;5063785;28;20478;-63
2023/04/11 08:55:29;;;;;;;17.00;4.27;;;;;;;;;;5063140;28;20086;-62
2023/04/11 08:57:58;;;;;;;13.50;2.67;;;;;;;;;;5069713;28;20116;-63
2023/04/11 09:00:25;;;;;;;9.73;2.30;;;;;;;;;;5069750;28;20113;-63
2023/04/11 09:02:54;;;;;;;8.77;2.00;;;;;;;;;;5069667;28;20564;-63
2023/04/11 09:05:30;;;;;;;15.67;2.63;;;;;;;;;;5059546;28;20053;-63
2023/04/11 09:08:05;;;;;;;12.67;2.60;;;;;;;;;;5066163;28;20066;-63
2023/04/11 09:10:31;;;;;;;11.00;2.73;;;;;;;;;;5069672;28;20123;-63
2023/04/11 09:12:57;;;;;;;12.23;2.37;;;;;;;;;;5067290;28;20110;-63
2023/04/11 09:15:25;;;;;;;11.40;2.10;;;;;;;;;;5067180;28;20048;-63
2023/04/11 09:17:52;;;;;;;13.77;2.13;;;;;;;;;;5069701;28;20124;-63
2023/04/11 09:20:19;;;;;;;14.07;2.67;;;;;;;;;;5063692;28;20044;-63
2023/04/11 09:22:47;;;;;;;11.43;2.07;;;;;;;;;;5068110;28;20040;-63
2023/04/11 09:25:13;;;;;;;12.03;2.90;;;;;;;;;;5068943;28;20041;-63
2023/04/11 09:27:39;;;;;;;10.63;2.63;;;;;;;;;;5062749;28;20052;-63
2023/04/11 09:30:18;;;;;;;12.63;2.63;;;;;;;;;;5062435;28;20411;-63
2023/04/11 09:32:45;;;;;;;10.07;2.20;;;;;;;;;;5063153;28;20045;-63
2023/04/11 09:35:19;;;;;;;11.57;2.30;;;;;;;;;;5057269;28;20044;-63
2023/04/11 09:37:49;;;;;;;10.20;2.43;;;;;;;;;;5068229;28;20063;-63
2023/04/11 09:40:15;;;;;;;9.73;2.00;;;;;;;;;;5068819;28;20048;-63
2023/04/11 09:42:42;;;;;;;9.07;2.60;;;;;;;;;;5068267;28;20044;-63
2023/04/11 09:45:18;;;;;;;10.93;2.33;;;;;;;;;;5066096;28;20040;-63
2023/04/11 09:47:45;;;;;;;9.10;1.90;;;;;;;;;;5052108;28;20596;-63
2023/04/11 09:50:11;;;;;;;14.80;2.43;;;;;;;;;;5048300;28;20045;-63
2023/04/11 09:52:39;;;;;;;14.40;3.00;;;;;;;;;;5048521;28;20164;-63
2023/04/11 09:55:06;;;;;;;13.17;3.17;;;;;;;;;;5047967;28;20052;-63
2023/04/11 09:57:33;;;;;;;11.83;2.57;;;;;;;;;;5050064;28;20051;-63
2023/04/11 10:00:15;;;;;;;11.20;2.20;;;;;;;;;;5048467;28;20411;-63
2023/04/11 10:02:41;;;;;;;14.37;2.13;;;;;;;;;;5056872;28;20040;-63
2023/04/11 10:05:09;;;;;;;12.73;2.90;;;;;;;;;;5056954;28;20110;-63
2023/04/11 10:07:36;;;;;;;14.30;2.80;;;;;;;;;;5057354;28;20099;-63
2023/04/11 10:10:03;;;;;;;11.57;2.97;;;;;;;;;;5057151;28;20047;-63
2023/04/11 10:12:35;;;;;;;9.77;1.80;;;;;;;;;;5057226;28;20045;-63
2023/04/11 10:15:08;;;;;;;8.45;2.45;;;;;;;;;;5058329;28;20107;-63
2023/04/11 10:17:35;;;;;;;9.97;2.00;;;;;;;;;;5059334;28;20048;-63
2023/04/11 10:20:03;;;;;;;11.00;1.90;;;;;;;;;;5057299;28;20049;-63
2023/04/11 10:22:42;;;;;;;8.03;2.27;;;;;;;;;;5056679;28;20654;-63
2023/04/11 10:25:15;;;;;;;9.50;2.30;;;;;;;;;;5058244;28;20076;-63
2023/04/11 10:27:41;;;;;;;;;;;;;;;;;;5056377;28;20199;-63
2023/04/11 10:30:08;;;;;;;7.17;1.30;;;;;;;;;;5053674;28;20047;-63
2023/04/11 10:32:34;;;;;;;10.30;3.07;;;;;;;;;;5053217;28;20055;-63
2023/04/11 10:35:00;;;;;;;13.23;2.43;;;;;;;;;;5058357;28;20040;-63
2023/04/11 10:37:29;;;;;;;12.07;2.23;;;;;;;;;;5056399;28;20052;-63
2023/04/11 10:39:57;;;;;;;8.87;2.20;;;;;;;;;;5058238;28;20048;-63
2023/04/11 10:42:27;;;;;;;11.70;2.00;;;;;;;;;;5055937;28;20763;-63
2023/04/11 10:45:11;;;;;;;7.77;1.40;;;;;;;;;;5055531;28;20119;-63
2023/04/11 10:47:37;;;;;;;14.80;3.70;;;;;;;;;;5058353;28;20417;-65
2023/04/11 10:50:03;;;;;;;13.77;2.53;;;;;;;;;;5061184;28;20048;-64
2023/04/11 10:52:37;;;;;;;7.87;1.93;;;;;;;;;;5052758;28;20134;-63
2023/04/11 10:55:03;;;;;;;;;;;;;;;;;;5056549;28;20522;-63
2023/04/11 10:57:49;;;;;;;15.87;2.50;;;;;;;;;;5056026;28;19929;-64
2023/04/11 11:00:15;;;;;;;11.97;2.37;;;;;;;;;;5060075;28;20049;-63
2023/04/11 11:02:41;;;;;;;9.50;2.07;;;;;;;;;;5059813;28;20098;-63
2023/04/11 11:05:17;;;;;;;8.83;2.17;;;;;;;;;;5059932;28;20851;-63
2023/04/11 11:07:45;;;;;;;12.00;1.90;;;;;;;;;;5061142;28;20047;-63
2023/04/11 11:10:12;;;;;;;13.23;1.77;;;;;;;;;;5060778;28;20051;-63
2023/04/11 11:12:51;;;;;;;8.40;1.93;;;;;;;;;;5061247;28;20040;-63
2023/04/11 11:15:17;;;;;;;11.70;2.20;;;;;;;;;;5062451;28;20570;-63
2023/04/11 11:17:43;;;;;;;10.10;1.70;;;;;;;;;;5062922;28;20423;-63
2023/04/11 11:20:15;;;;;;;8.97;2.10;;;;;;;;;;5061671;28;20415;-63
2023/04/11 11:22:42;;;;;;;10.03;2.17;;;;;;;;;;5044608;28;20040;-63
2023/04/11 11:25:08;;;;;;;7.57;2.30;;;;;;;;;;5060813;28;20283;-63
2023/04/11 11:27:34;;;;;;;12.50;2.10;;;;;;;;;;5059732;28;20179;-63
2023/04/11 11:30:10;;;;;;;7.97;2.40;;;;;;;;;;5061741;28;20571;-63
2023/04/11 11:32:36;;;;;;;11.77;2.70;;;;;;;;;;5061794;28;20051;-63
2023/04/11 11:35:14;;;;;;;11.47;2.20;;;;;;;;;;5060367;28;20102;-63
2023/04/11 11:37:40;;;;;;;12.30;2.00;;;;;;;;;;5062368;28;20036;-63
2023/04/11 11:40:11;;;;;;;8.97;2.33;;;;;;;;;;5060682;28;20098;-63
2023/04/11 11:42:37;;;;;;;8.63;1.83;;;;;;;;;;5059621;28;20041;-62
2023/04/11 11:45:13;;;;;;;12.50;2.10;;;;;;;;;;5060899;28;20546;-63
2023/04/11 11:47:43;;;;;;;13.77;2.30;;;;;;;;;;5059888;28;20075;-62
2023/04/11 11:50:10;;;;;;;11.43;1.83;;;;;;;;;;5060342;28;20041;-62
2023/04/11 11:52:41;;;;;;;9.30;1.90;;;;;;;;;;5061423;28;20056;-62
2023/04/11 11:55:08;;;;;;;11.47;2.03;;;;;;;;;;5060146;28;20056;-62
2023/04/11 11:57:43;;;;;;;12.20;1.67;;;;;;;;;;5059552;28;20099;-62
2023/04/11 12:00:09;;;;;;;11.63;2.10;;;;;;;;;;5059276;28;20040;-62
2023/04/11 12:02:35;;;;;;;10.77;2.03;;;;;;;;;;5058417;28;20048;-62
2023/04/11 12:05:04;;;;;;;6.73;1.87;;;;;;;;;;5060579;28;20044;-62
2023/04/11 12:07:33;;;;;;;8.20;1.70;;;;;;;;;;5059329;28;20052;-62
2023/04/11 12:10:06;;;;;;;7.93;1.73;;;;;;;;;;5058637;28;20120;-62
2023/04/11 12:12:36;;;;;;;12.63;1.63;;;;;;;;;;5062222;28;20403;-62
2023/04/11 12:15:03;;;;;;;13.77;2.00;;;;;;;;;;5061015;28;20037;-61
2023/04/11 12:17:33;;;;;;;11.27;2.00;;;;;;;;;;5059351;28;20048;-62
2023/04/11 12:20:00;;;;;;;8.50;2.70;;;;;;;;;;5059956;28;20036;-62
2023/04/11 12:22:26;;;;;;;8.43;1.87;;;;;;;;;;5057007;28;20071;-61
2023/04/11 12:24:52;;;;;;;9.20;1.40;;;;;;;;;;5058456;28;20124;-61
2023/04/11 12:27:19;;;;;;;9.30;2.20;;;;;;;;;;5055268;28;20079;-61
2023/04/11 12:29:45;;;;;;;8.97;1.60;;;;;;;;;;5057682;28;20037;-62
2023/04/11 12:32:11;;;;;;;10.30;2.37;;;;;;;;;;5057980;28;20036;-61
2023/04/11 12:34:37;;;;;;;10.30;2.27;;;;;;;;;;5057666;28;20044;-61
2023/04/11 12:37:03;;;;;;;11.63;1.70;;;;;;;;;;5059599;28;20053;-60
2023/04/11 12:39:30;;;;;;;7.10;1.97;;;;;;;;;;5058427;28;20041;-60
2023/04/11 12:41:56;;;;;;;7.37;1.60;;;;;;;;;;5058515;28;20040;-61
2023/04/11 12:44:22;;;;;;;7.43;1.67;;;;;;;;;;5059446;28;20045;-61
2023/04/11 12:46:48;;;;;;;6.13;1.53;;;;;;;;;;5058806;28;20102;-60
2023/04/11 12:49:15;;;;;;;6.60;1.60;;;;;;;;;;5062831;28;20052;-60
2023/04/11 12:51:41;;;;;;;7.00;1.80;;;;;;;;;;5060977;28;20040;-61
2023/04/11 12:54:07;;;;;;;5.63;1.47;;;;;;;;;;5059012;28;20574;-61
2023/04/11 12:56:33;;;;;;;7.83;1.40;;;;;;;;;;5060279;28;20040;-60
2023/04/11 12:58:59;;;;;;;9.87;2.07;;;;;;;;;;5060066;28;20391;-61
2023/04/11 13:01:26;;;;;;;8.87;1.60;;;;;;;;;;5059443;28;20513;-61
2023/04/11 13:03:52;;;;;;;8.30;1.43;;;;;;;;;;5059877;28;20606;-60
2023/04/11 13:06:18;;;;;;;12.00;2.50;;;;;;;;;;5059555;28;20040;-60
2023/04/11 13:08:44;;;;;;;10.87;2.30;;;;;;;;;;5057449;28;20044;-60
2023/04/11 13:11:10;;;;;;;8.90;1.47;;;;;;;;;;5056701;28;20048;-60
2023/04/11 13:13:36;;;;;;;8.50;2.00;;;;;;;;;;5059049;28;20037;-60
2023/04/11 13:16:02;;;;;;;12.03;2.10;;;;;;;;;;5057957;28;20053;-60
2023/04/11 13:18:28;;;;;;;10.93;2.27;;;;;;;;;;5058103;28;20048;-60
2023/04/11 13:20:55;;;;;;;10.53;1.93;;;;;;;;;;5058171;28;20546;-60
2023/04/11 13:23:21;;;;;;;7.60;1.77;;;;;;;;;;5057059;28;20048;-60
2023/04/11 13:25:47;;;;;;;8.93;2.20;;;;;;;;;;5059868;28;20043;-60
2023/04/11 13:28:13;;;;;;;8.77;1.67;;;;;;;;;;5057386;28;20435;-60
2023/04/11 13:30:39;;;;;;;10.27;2.30;;;;;;;;;;5062541;28;20055;-60
2023/04/11 13:33:05;;;;;;;10.87;1.93;;;;;;;;;;5061499;28;20055;-61
2023/04/11 13:35:32;;;;;;;9.70;1.60;;;;;;;;;;5058069;28;20052;-60
2023/04/11 13:37:58;;;;;;;7.03;1.40;;;;;;;;;;5061273;28;20063;-60
2023/04/11 13:40:24;;;;;;;8.80;1.73;;;;;;;;;;5061139;28;20049;-60
2023/04/11 13:42:53;;;;;;;7.47;1.37;;;;;;;;;;5049106;28;20053;-60
2023/04/11 13:45:19;;;;;;;8.10;1.97;;;;;;;;;;5057916;28;20052;-59
2023/04/11 13:47:45;;;;;;;8.70;1.80;;;;;;;;;;5060269;28;20246;-58
2023/04/11 13:50:11;;;;;;;11.70;1.80;;;;;;;;;;5054640;28;20047;-59
2023/04/11 13:52:37;;;;;;;14.77;2.73;;;;;;;;;;5060789;28;20154;-59
2023/04/11 13:55:04;;;;;;;9.10;1.67;;;;;;;;;;5062527;28;20040;-59
2023/04/11 13:57:30;;;;;;;6.60;1.70;;;;;;;;;;5058043;28;20582;-59
2023/04/11 13:59:56;;;;;;;6.10;1.80;;;;;;;;;;5056940;28;20044;-59
2023/04/11 14:02:22;;;;;;;12.83;3.27;;;;;;;;;;5056567;28;20048;-60
2023/04/11 14:04:48;;;;;;;4.23;1.23;;;;;;;;;;5056228;28;20045;-60
2023/04/11 14:07:14;;;;;;;11.00;2.23;;;;;;;;;;5058001;28;20056;-59
2023/04/11 14:09:40;;;;;;;7.23;1.50;;;;;;;;;;5057187;28;20444;-60
2023/04/11 14:12:06;;;;;;;9.67;2.10;;;;;;;;;;5059074;28;20071;-60
2023/04/11 14:14:33;;;;;;;8.60;2.10;;;;;;;;;;5057762;28;20033;-60
2023/04/11 14:16:59;;;;;;;10.37;1.63;;;;;;;;;;5061457;28;20530;-59
2023/04/11 14:19:26;;;;;;;10.30;1.47;;;;;;;;;;5064898;28;20040;-59
2023/04/11 14:21:52;;;;;;;7.20;1.73;;;;;;;;;;5069158;28;20056;-59
2023/04/11 14:24:20;;;;;;;8.27;1.70;;;;;;;;;;5069108;28;20052;-59
2023/04/11 14:26:46;;;;;;;7.83;1.43;;;;;;;;;;5068820;28;20525;-59
2023/04/11 14:29:13;;;;;;;7.47;1.70;;;;;;;;;;5059922;28;20088;-60
2023/04/11 14:31:39;;;;;;;10.60;2.37;;;;;;;;;;5050618;28;20060;-60
2023/04/11 14:34:05;;;;;;;6.50;2.07;;;;;;;;;;5053333;28;20040;-60